createdAt,value
2022-08-17T00:00:06.913Z,42.20
2022-08-17T00:02:42.775Z,42.00
2022-08-17T00:05:10.189Z,41.70
2022-08-17T00:07:37.133Z,41.40
2022-08-17T00:10:04.297Z,41.30
2022-08-17T00:12:41.445Z,41.00
2022-08-17T00:15:23.949Z,40.90
2022-08-17T00:17:52.817Z,40.90
2022-08-17T00:20:20.232Z,41.20
2022-08-17T00:23:08.982Z,41.40
2022-08-17T00:25:36.203Z,41.50
2022-08-17T00:28:03.596Z,41.60
2022-08-17T00:30:31.161Z,41.80
2022-08-17T00:33:26.335Z,41.90
2022-08-17T00:35:54.607Z,41.90
2022-08-17T00:38:22.369Z,41.80
2022-08-17T00:40:56.001Z,41.90
2022-08-17T00:43:28.635Z,41.80
2022-08-17T00:45:55.714Z,41.70
2022-08-17T00:48:29.007Z,41.60
2022-08-17T00:50:59.923Z,41.70
2022-08-17T00:53:30.914Z,41.70
2022-08-17T00:56:00.010Z,41.70
2022-08-17T00:58:36.314Z,41.70
2022-08-17T01:01:06.781Z,41.70
2022-08-17T01:03:35.266Z,41.60
2022-08-17T01:06:04.548Z,41.80
2022-08-17T01:08:33.133Z,41.60
2022-08-17T01:11:05.415Z,41.50
2022-08-17T01:13:40.710Z,41.60
2022-08-17T01:16:16.153Z,41.40
2022-08-17T01:18:45.812Z,41.40
2022-08-17T01:21:55.123Z,41.40
2022-08-17T01:24:22.233Z,41.40
2022-08-17T01:26:49.499Z,41.40
2022-08-17T01:29:16.878Z,41.30
2022-08-17T01:31:54.962Z,41.00
2022-08-17T01:34:22.056Z,40.90
2022-08-17T01:36:50.059Z,41.20
2022-08-17T01:39:42.298Z,41.30
2022-08-17T01:42:21.651Z,41.40
2022-08-17T01:44:49.613Z,41.40
2022-08-17T01:47:16.563Z,41.40
2022-08-17T01:49:44.606Z,41.50
2022-08-17T01:52:12.956Z,41.60
2022-08-17T01:54:43.696Z,41.60
2022-08-17T01:57:11.616Z,41.70
2022-08-17T01:59:38.890Z,41.70
2022-08-17T02:02:07.481Z,41.80
2022-08-17T02:04:35.068Z,41.60
2022-08-17T02:07:02.127Z,41.60
2022-08-17T02:09:30.870Z,41.60
2022-08-17T02:12:37.358Z,41.60
2022-08-17T02:14:47.527Z,41.70
2022-08-17T02:17:14.686Z,41.60
2022-08-17T02:19:42.005Z,41.60
2022-08-17T02:22:10.317Z,41.60
2022-08-17T02:25:00.651Z,41.50
2022-08-17T02:27:25.950Z,41.30
2022-08-17T02:29:52.952Z,41.30
2022-08-17T02:32:27.268Z,41.30
2022-08-17T02:35:01.206Z,41.40
2022-08-17T02:37:29.053Z,41.60
2022-08-17T02:40:00.348Z,41.60
2022-08-17T02:42:34.029Z,41.50
2022-08-17T02:45:02.596Z,41.40
2022-08-17T02:47:29.960Z,41.40
2022-08-17T02:49:57.139Z,41.50
2022-08-17T02:52:42.945Z,41.60
2022-08-17T02:55:17.864Z,41.70
2022-08-17T02:57:45.322Z,41.70
2022-08-17T03:00:19.953Z,41.70
2022-08-17T03:02:47.256Z,41.70
2022-08-17T03:05:17.098Z,41.50
2022-08-17T03:07:44.185Z,41.50
2022-08-17T03:10:11.942Z,41.60
2022-08-17T03:12:41.078Z,41.70
2022-08-17T03:15:18.990Z,41.80
2022-08-17T03:17:46.408Z,41.80
2022-08-17T03:20:16.301Z,41.80
2022-08-17T03:22:53.091Z,41.80
2022-08-17T03:25:26.846Z,41.80
2022-08-17T03:27:55.552Z,41.60
2022-08-17T03:30:23.553Z,41.50
2022-08-17T03:32:52.216Z,41.50
2022-08-17T03:35:22.324Z,41.40
2022-08-17T03:37:51.395Z,41.50
2022-08-17T03:40:55.463Z,41.50
2022-08-17T03:43:15.773Z,41.50
2022-08-17T03:46:02.524Z,41.60
2022-08-17T03:48:48.388Z,41.60
2022-08-17T03:51:40.246Z,41.60
2022-08-17T03:54:26.624Z,41.60
2022-08-17T03:57:08.892Z,41.40
2022-08-17T03:59:37.580Z,41.30
2022-08-17T04:02:11.232Z,41.20
2022-08-17T04:04:38.743Z,41.00
2022-08-17T04:07:06.189Z,41.00
2022-08-17T04:09:33.373Z,41.10
2022-08-17T04:12:04.540Z,41.20
2022-08-17T04:14:37.856Z,41.40
2022-08-17T04:17:20.611Z,41.50
2022-08-17T04:19:47.626Z,41.60
2022-08-17T04:22:32.572Z,41.60
2022-08-17T04:25:16.411Z,41.70
2022-08-17T04:27:43.369Z,41.60
2022-08-17T04:30:10.953Z,41.70
2022-08-17T04:33:06.471Z,41.80
2022-08-17T04:35:47.331Z,41.90
2022-08-17T04:38:17.449Z,42.10
2022-08-17T04:41:03.795Z,42.00
2022-08-17T04:43:32.863Z,41.80
2022-08-17T04:46:02.545Z,41.80
2022-08-17T04:48:35.718Z,41.50
2022-08-17T04:51:12.089Z,41.40
2022-08-17T04:53:44.533Z,41.60
2022-08-17T04:56:16.677Z,41.60
2022-08-17T04:58:49.975Z,41.50
2022-08-17T05:01:23.114Z,41.50
2022-08-17T05:03:56.381Z,41.60
2022-08-17T05:06:24.129Z,42.00
2022-08-17T05:08:51.256Z,42.50
2022-08-17T05:11:18.234Z,42.80
2022-08-17T05:13:45.261Z,43.00
2022-08-17T05:16:12.693Z,43.00
2022-08-17T05:18:39.672Z,42.90
2022-08-17T05:21:07.043Z,42.80
2022-08-17T05:23:41.799Z,43.00
2022-08-17T05:26:25.546Z,43.00
2022-08-17T05:28:54.712Z,43.00
2022-08-17T05:31:24.830Z,42.90
2022-08-17T05:33:52.507Z,43.10
2022-08-17T05:36:42.517Z,43.50
2022-08-17T05:39:06.798Z,43.80
2022-08-17T05:41:33.774Z,44.10
2022-08-17T05:44:00.728Z,44.30
2022-08-17T05:46:40.058Z,44.50
2022-08-17T05:49:08.705Z,44.70
2022-08-17T05:51:35.610Z,44.80
2022-08-17T05:54:36.475Z,44.60
2022-08-17T05:57:06.146Z,44.70
2022-08-17T05:59:57.275Z,44.70
2022-08-17T06:03:00.593Z,45.10
2022-08-17T06:05:54.139Z,45.60
2022-08-17T06:09:00.476Z,45.80
2022-08-17T06:11:35.313Z,46.10
2022-08-17T06:14:22.536Z,46.20
2022-08-17T06:16:56.539Z,46.40
2022-08-17T06:19:38.552Z,46.30
2022-08-17T06:22:07.062Z,46.60
2022-08-17T06:24:57.911Z,47.00
2022-08-17T06:27:30.805Z,47.30
2022-08-17T06:30:12.117Z,47.20
2022-08-17T06:32:46.222Z,47.50
2022-08-17T06:35:37.708Z,47.70
2022-08-17T06:38:37.105Z,47.80
2022-08-17T06:41:30.027Z,47.90
2022-08-17T06:44:06.458Z,48.00
2022-08-17T06:46:48.657Z,48.10
2022-08-17T06:49:26.221Z,48.20
2022-08-17T06:52:00.998Z,48.20
2022-08-17T06:54:45.938Z,48.30
2022-08-17T06:57:36.201Z,48.50
2022-08-17T07:00:10.766Z,48.80
2022-08-17T07:02:55.478Z,49.10
2022-08-17T07:05:32.855Z,49.40
2022-08-17T07:08:03.032Z,49.70
2022-08-17T07:10:36.921Z,50.10
2022-08-17T07:13:20.570Z,50.40
2022-08-17T07:15:51.816Z,50.50
2022-08-17T07:18:26.126Z,50.70
2022-08-17T07:21:00.057Z,50.40
2022-08-17T07:23:52.708Z,50.60
2022-08-17T07:26:19.895Z,50.70
2022-08-17T07:28:46.979Z,50.70
2022-08-17T07:31:17.634Z,51.10
2022-08-17T07:34:08.017Z,51.30
2022-08-17T07:36:35.271Z,51.50
2022-08-17T07:39:04.183Z,51.80
2022-08-17T07:41:57.610Z,52.00
2022-08-17T07:44:26.684Z,52.10
2022-08-17T07:47:12.970Z,52.30
2022-08-17T07:49:46.535Z,52.30
2022-08-17T07:52:51.166Z,52.60
2022-08-17T07:55:29.994Z,52.80
2022-08-17T07:57:59.580Z,52.90
2022-08-17T08:00:32.776Z,52.90
2022-08-17T08:03:32.102Z,53.10
2022-08-17T08:06:02.402Z,53.40
2022-08-17T08:08:29.560Z,53.60
2022-08-17T08:11:04.706Z,53.70
2022-08-17T08:13:33.304Z,53.90
2022-08-17T08:16:17.386Z,54.00
2022-08-17T08:18:56.116Z,54.20
2022-08-17T08:21:51.540Z,54.50
2022-08-17T08:24:45.039Z,54.60
2022-08-17T08:27:40.262Z,54.80
2022-08-17T08:30:12.192Z,55.10
2022-08-17T08:32:54.176Z,55.20
2022-08-17T08:35:32.598Z,55.30
2022-08-17T08:38:20.227Z,55.30
2022-08-17T08:41:16.549Z,55.60
2022-08-17T08:43:53.016Z,55.70
2022-08-17T08:46:48.414Z,55.70
2022-08-17T08:52:37.847Z,56.10
2022-08-17T08:55:46.512Z,56.30
2022-08-17T08:58:32.022Z,56.60
2022-08-17T09:01:19.208Z,56.50
2022-08-17T09:04:25.208Z,56.70
2022-08-17T09:07:06.427Z,56.90
2022-08-17T09:09:49.997Z,56.90
2022-08-17T09:12:41.807Z,57.00
2022-08-17T09:15:35.331Z,57.10
2022-08-17T09:19:03.265Z,57.30
2022-08-17T09:21:18.215Z,57.40
2022-08-17T09:24:02.722Z,57.30
2022-08-17T09:26:57.219Z,57.40
2022-08-17T09:29:27.173Z,57.40
2022-08-17T09:31:55.450Z,57.40
2022-08-17T09:34:43.576Z,57.40
2022-08-17T09:37:42.035Z,57.00
2022-08-17T09:40:21.318Z,57.00
2022-08-17T09:43:06.806Z,56.90
2022-08-17T09:45:53.188Z,56.70
2022-08-17T09:48:38.935Z,56.90
2022-08-17T09:51:34.306Z,57.00
2022-08-17T09:54:34.753Z,57.10
2022-08-17T09:57:11.799Z,56.90
2022-08-17T10:00:13.346Z,57.10
2022-08-17T10:02:54.536Z,56.90
2022-08-17T10:05:39.802Z,57.10
2022-08-17T10:08:44.980Z,57.00
2022-08-17T10:11:52.465Z,57.10
2022-08-17T10:14:46.312Z,56.60
2022-08-17T10:17:31.196Z,56.80
2022-08-17T10:20:07.227Z,56.70
2022-08-17T10:23:18.354Z,56.50
2022-08-17T10:26:14.633Z,56.40
2022-08-17T10:28:50.226Z,55.80
2022-08-17T10:31:36.296Z,55.80
2022-08-17T10:34:28.297Z,55.90
2022-08-17T10:37:07.238Z,56.50
2022-08-17T10:39:52.589Z,57.10
2022-08-17T10:42:43.797Z,57.50
2022-08-17T10:45:26.612Z,57.70
2022-08-17T10:48:07.889Z,58.00
2022-08-17T10:51:18.652Z,58.20
2022-08-17T10:53:49.706Z,58.50
2022-08-17T10:56:17.533Z,58.50
2022-08-17T10:59:02.473Z,58.10
2022-08-17T11:01:32.234Z,57.30
2022-08-17T11:04:29.048Z,56.40
2022-08-17T11:07:21.142Z,55.50
2022-08-17T11:10:29.732Z,54.70
2022-08-17T11:13:11.520Z,53.90
2022-08-17T11:16:02.353Z,53.40
2022-08-17T11:18:56.418Z,52.90
2022-08-17T11:21:45.214Z,52.30
2022-08-17T11:24:31.549Z,52.00
2022-08-17T11:27:33.994Z,51.50
2022-08-17T11:30:05.601Z,51.00
2022-08-17T11:32:47.344Z,50.50
2022-08-17T11:35:21.483Z,50.40
2022-08-17T11:38:16.254Z,50.40
2022-08-17T11:41:06.519Z,50.50
2022-08-17T11:43:56.449Z,51.00
2022-08-17T11:46:51.904Z,51.90
2022-08-17T11:50:31.658Z,52.80
2022-08-17T11:52:58.647Z,53.70
2022-08-17T11:55:38.440Z,54.20
2022-08-17T11:58:30.413Z,54.70
2022-08-17T12:00:59.235Z,55.10
2022-08-17T12:03:32.362Z,55.30
2022-08-17T12:06:30.467Z,55.70
2022-08-17T12:09:24.981Z,56.00
2022-08-17T12:12:29.699Z,56.50
2022-08-17T12:15:10.153Z,56.70
2022-08-17T12:17:40.139Z,56.90
2022-08-17T12:20:19.074Z,57.30
2022-08-17T12:23:05.058Z,57.30
2022-08-17T12:25:56.749Z,57.60
2022-08-17T12:28:36.395Z,57.30
2022-08-17T12:31:07.251Z,56.60
2022-08-17T12:33:37.025Z,55.80
2022-08-17T12:36:08.649Z,55.30
2022-08-17T12:38:38.128Z,54.30
2022-08-17T12:41:26.312Z,53.60
2022-08-17T12:44:02.587Z,52.80
2022-08-17T12:46:33.701Z,52.20
2022-08-17T12:49:23.636Z,51.40
2022-08-17T12:52:02.608Z,50.90
2022-08-17T12:54:48.220Z,50.70
2022-08-17T12:57:31.389Z,50.50
2022-08-17T13:00:08.372Z,50.90
2022-08-17T13:02:40.871Z,51.30
2022-08-17T13:05:17.954Z,51.70
2022-08-17T13:07:46.662Z,52.10
2022-08-17T13:10:36.023Z,52.70
2022-08-17T13:13:17.761Z,53.20
2022-08-17T13:15:57.232Z,53.40
2022-08-17T13:18:44.222Z,53.80
2022-08-17T13:21:19.172Z,53.80
2022-08-17T13:23:59.882Z,54.00
2022-08-17T13:26:38.094Z,53.90
2022-08-17T13:29:07.753Z,53.90
2022-08-17T13:31:52.559Z,54.10
2022-08-17T13:34:29.111Z,53.90
2022-08-17T13:37:32.510Z,54.10
2022-08-17T13:40:02.524Z,53.90
2022-08-17T13:42:52.022Z,54.10
2022-08-17T13:45:39.300Z,54.40
2022-08-17T13:48:06.694Z,54.50
2022-08-17T13:50:35.251Z,54.50
2022-08-17T13:53:02.538Z,54.70
2022-08-17T13:55:32.179Z,54.50
2022-08-17T13:58:04.098Z,54.60
2022-08-17T14:00:37.788Z,54.60
2022-08-17T14:03:05.638Z,54.70
2022-08-17T14:05:37.414Z,54.50
2022-08-17T14:08:06.683Z,54.40
2022-08-17T14:10:36.601Z,54.30
2022-08-17T14:13:04.954Z,53.80
2022-08-17T14:15:54.988Z,53.70
2022-08-17T14:18:43.339Z,53.70
2022-08-17T14:21:13.069Z,53.50
2022-08-17T14:23:41.116Z,53.40
2022-08-17T14:26:18.194Z,53.50
2022-08-17T14:28:56.317Z,53.20
2022-08-17T14:31:26.737Z,53.00
2022-08-17T14:33:54.745Z,52.70
2022-08-17T14:36:26.287Z,52.90
2022-08-17T14:38:56.553Z,52.80
2022-08-17T14:41:24.373Z,52.80
2022-08-17T14:43:53.671Z,52.80
2022-08-17T14:46:20.857Z,52.70
2022-08-17T14:48:47.806Z,52.70
2022-08-17T14:51:18.151Z,52.60
2022-08-17T14:53:45.980Z,52.50
2022-08-17T14:56:13.522Z,52.40
2022-08-17T14:58:43.263Z,52.20
2022-08-17T15:01:14.684Z,51.90
2022-08-17T15:03:42.365Z,51.90
2022-08-17T15:06:16.459Z,51.90
2022-08-17T15:08:44.759Z,51.60
2022-08-17T15:11:14.459Z,51.60
2022-08-17T15:13:52.453Z,51.50
2022-08-17T15:16:20.607Z,51.40
2022-08-17T15:18:47.692Z,51.10
2022-08-17T15:21:14.992Z,50.80
2022-08-17T15:23:42.103Z,50.40
2022-08-17T15:26:11.589Z,50.20
2022-08-17T15:28:38.788Z,50.00
2022-08-17T15:31:06.788Z,49.40
2022-08-17T15:33:34.056Z,49.00
2022-08-17T15:36:06.528Z,48.80
2022-08-17T15:38:39.577Z,48.50
2022-08-17T15:41:08.668Z,48.20
2022-08-17T15:43:36.640Z,48.00
2022-08-17T15:46:12.521Z,47.80
2022-08-17T15:48:42.018Z,47.80
2022-08-17T15:51:09.206Z,47.70
2022-08-17T15:53:37.037Z,47.40
2022-08-17T15:56:05.436Z,47.30
2022-08-17T15:58:37.064Z,47.00
2022-08-17T16:01:14.788Z,47.00
2022-08-17T16:04:04.302Z,46.80
2022-08-17T16:06:32.442Z,46.80
2022-08-17T16:09:00.504Z,46.70
2022-08-17T16:11:27.568Z,46.50
2022-08-17T16:13:56.067Z,46.80
2022-08-17T16:16:25.616Z,46.80
2022-08-17T16:18:58.521Z,46.20
2022-08-17T16:21:27.108Z,45.70
2022-08-17T16:24:04.601Z,45.80
2022-08-17T16:26:33.365Z,45.80
2022-08-17T16:29:02.716Z,45.90
2022-08-17T16:31:29.760Z,45.70
2022-08-17T16:34:15.640Z,45.70
2022-08-17T16:36:51.715Z,45.60
2022-08-17T16:39:26.968Z,45.60
2022-08-17T16:41:54.289Z,45.50
2022-08-17T16:44:21.978Z,45.60
2022-08-17T16:46:52.464Z,45.40
2022-08-17T16:49:35.125Z,45.50
2022-08-17T16:52:07.012Z,45.40
2022-08-17T16:54:35.666Z,45.40
2022-08-17T16:57:05.389Z,45.30
2022-08-17T16:59:41.945Z,45.20
2022-08-17T17:02:11.114Z,45.40
2022-08-17T17:04:45.497Z,45.60
2022-08-17T17:07:34.039Z,45.70
2022-08-17T17:10:11.776Z,45.50
2022-08-17T17:13:03.165Z,45.50
2022-08-17T17:15:54.394Z,45.40
2022-08-17T17:18:31.851Z,45.30
2022-08-17T17:21:00.537Z,45.40
2022-08-17T17:23:45.840Z,45.40
2022-08-17T17:26:21.945Z,45.40
2022-08-17T17:29:00.926Z,45.10
2022-08-17T17:31:38.729Z,44.90
2022-08-17T17:34:10.995Z,44.90
2022-08-17T17:36:40.461Z,45.00
2022-08-17T17:39:19.468Z,44.90
2022-08-17T17:41:52.272Z,45.00
2022-08-17T17:44:28.783Z,45.10
2022-08-17T17:46:58.389Z,45.10
2022-08-17T17:49:33.200Z,45.00
2022-08-17T17:52:14.451Z,45.00
2022-08-17T17:55:19.753Z,44.80
2022-08-17T17:58:20.596Z,44.80
2022-08-17T18:01:17.747Z,44.60
2022-08-17T18:03:59.283Z,44.50
2022-08-17T18:06:57.183Z,44.50
2022-08-17T18:10:01.510Z,44.40
2022-08-17T18:13:08.938Z,44.20
2022-08-17T18:15:51.501Z,44.30
2022-08-17T18:18:18.502Z,44.10
2022-08-17T18:20:53.997Z,44.10
2022-08-17T18:23:27.933Z,44.00
2022-08-17T18:25:56.735Z,44.10
2022-08-17T18:28:27.968Z,43.90
2022-08-17T18:31:18.076Z,43.90
2022-08-17T18:33:51.016Z,43.90
2022-08-17T18:36:32.847Z,43.90
2022-08-17T18:39:21.462Z,43.70
2022-08-17T18:41:50.735Z,43.60
2022-08-17T18:44:32.959Z,43.50
2022-08-17T18:47:20.279Z,43.60
2022-08-17T18:49:57.974Z,43.50
2022-08-17T18:52:31.107Z,43.60
2022-08-17T18:55:11.636Z,43.70
2022-08-17T18:57:46.703Z,43.70
2022-08-17T19:00:30.711Z,43.70
2022-08-17T19:03:01.864Z,43.70
2022-08-17T19:05:41.160Z,43.60
2022-08-17T19:08:23.156Z,43.60
2022-08-17T19:11:03.784Z,43.60
2022-08-17T19:14:10.678Z,43.60
2022-08-17T19:16:50.326Z,43.80
2022-08-17T19:19:54.207Z,43.70
2022-08-17T19:22:31.002Z,43.70
2022-08-17T19:25:16.031Z,43.60
2022-08-17T19:28:01.692Z,43.60
2022-08-17T19:30:32.998Z,43.70
2022-08-17T19:33:02.652Z,43.70
2022-08-17T19:35:59.010Z,43.70
2022-08-17T19:38:40.517Z,43.60
2022-08-17T19:41:21.731Z,43.60
2022-08-17T19:44:00.652Z,43.30
2022-08-17T19:47:01.975Z,43.20
2022-08-17T19:50:01.003Z,43.20
2022-08-17T19:52:33.835Z,43.20
2022-08-17T19:55:04.821Z,43.40
2022-08-17T19:57:50.855Z,43.40
2022-08-17T20:00:19.291Z,43.20
2022-08-17T20:03:00.203Z,43.40
2022-08-17T20:05:29.319Z,43.30
2022-08-17T20:08:10.818Z,43.30
2022-08-17T20:10:54.594Z,43.30
2022-08-17T20:14:04.754Z,43.50
2022-08-17T20:16:33.380Z,43.60
2022-08-17T20:19:45.241Z,43.60
2022-08-17T20:22:29.228Z,43.60
2022-08-17T20:25:19.572Z,43.70
2022-08-17T20:28:22.554Z,43.70
2022-08-17T20:30:51.589Z,43.70
2022-08-17T20:33:37.180Z,43.80
2022-08-17T20:36:16.607Z,43.90
2022-08-17T20:38:57.804Z,43.90
2022-08-17T20:41:30.446Z,43.90
2022-08-17T20:43:57.334Z,43.90
2022-08-17T20:46:36.433Z,44.00
2022-08-17T20:49:14.571Z,43.90
2022-08-17T20:52:02.555Z,43.90
2022-08-17T20:54:41.683Z,43.80
2022-08-17T20:57:14.406Z,43.90
2022-08-17T20:59:45.120Z,43.90
2022-08-17T21:02:20.037Z,43.60
2022-08-17T21:04:56.961Z,43.50
2022-08-17T21:07:41.039Z,43.40
2022-08-17T21:10:29.928Z,43.50
2022-08-17T21:13:12.488Z,43.50
2022-08-17T21:15:42.441Z,43.50
2022-08-17T21:18:26.180Z,43.60
2022-08-17T21:21:32.508Z,43.60
2022-08-17T21:24:20.563Z,43.60
2022-08-17T21:27:23.696Z,43.60
2022-08-17T21:30:06.496Z,43.50
2022-08-17T21:32:38.987Z,43.50
2022-08-17T21:35:15.830Z,43.40
2022-08-17T21:37:45.876Z,43.40
2022-08-17T21:40:18.803Z,43.30
2022-08-17T21:42:50.651Z,43.40
2022-08-17T21:45:31.197Z,43.30
2022-08-17T21:48:23.989Z,43.30
2022-08-17T21:51:00.992Z,43.20
2022-08-17T21:53:53.539Z,43.30
2022-08-17T21:56:29.031Z,43.10
2022-08-17T21:59:02.965Z,43.10
2022-08-17T22:01:37.575Z,43.10
2022-08-17T22:04:27.397Z,43.00
2022-08-17T22:06:57.528Z,43.10
2022-08-17T22:09:34.734Z,43.10
2022-08-17T22:12:07.581Z,43.00
2022-08-17T22:14:52.466Z,43.10
2022-08-17T22:17:29.038Z,43.10
2022-08-17T22:20:14.619Z,43.10
2022-08-17T22:23:25.844Z,43.20
2022-08-17T22:26:03.768Z,43.00
2022-08-17T22:28:45.866Z,42.80
2022-08-17T22:31:18.862Z,42.80
2022-08-17T22:34:13.093Z,43.00
2022-08-17T22:36:42.228Z,43.10
2022-08-17T22:39:09.139Z,43.10
2022-08-17T22:41:48.235Z,43.10
2022-08-17T22:44:41.539Z,43.00
2022-08-17T22:47:18.454Z,43.00
2022-08-17T22:49:53.321Z,43.00
2022-08-17T22:53:02.271Z,42.90
2022-08-17T22:55:52.654Z,42.90
2022-08-17T22:58:42.295Z,43.00
2022-08-17T23:01:32.470Z,42.80
2022-08-17T23:04:07.097Z,42.90
2022-08-17T23:06:35.582Z,43.00
2022-08-17T23:09:05.862Z,43.00
2022-08-17T23:11:49.746Z,43.00
2022-08-17T23:14:19.942Z,43.10
2022-08-17T23:16:48.797Z,43.10
2022-08-17T23:19:20.460Z,43.10
2022-08-17T23:21:48.838Z,43.00
2022-08-17T23:24:22.651Z,43.10
2022-08-17T23:26:49.659Z,43.20
2022-08-17T23:29:16.743Z,43.10
2022-08-17T23:31:43.699Z,43.10
2022-08-17T23:34:13.335Z,43.10
2022-08-17T23:36:41.577Z,43.10
2022-08-17T23:39:08.617Z,43.10
2022-08-17T23:41:40.145Z,43.10
2022-08-17T23:44:07.745Z,43.10
2022-08-17T23:46:35.159Z,43.20
2022-08-17T23:49:03.329Z,43.10
2022-08-17T23:51:38.488Z,42.90
2022-08-17T23:54:20.892Z,42.90
2022-08-17T23:56:47.999Z,43.00
2022-08-17T23:59:19.857Z,42.90
